createdAt,value
2018-05-31T00:02:25.482Z,20.70
2018-05-31T00:04:52.076Z,21.40
2018-05-31T00:07:18.668Z,21.50
2018-05-31T00:09:45.264Z,19.95
2018-05-31T00:12:11.864Z,22.50
2018-05-31T00:14:38.471Z,23.52
2018-05-31T00:17:05.059Z,23.52
2018-05-31T00:19:31.720Z,20.95
2018-05-31T00:21:58.312Z,22.50
2018-05-31T00:24:24.912Z,22.25
2018-05-31T00:26:51.520Z,22.92
2018-05-31T00:29:18.123Z,20.58
2018-05-31T00:31:44.734Z,19.92
2018-05-31T00:34:11.332Z,23.62
2018-05-31T00:36:37.944Z,22.90
2018-05-31T00:39:04.537Z,19.25
2018-05-31T00:41:31.136Z,20.95
2018-05-31T00:43:57.750Z,22.73
2018-05-31T00:46:24.356Z,20.92
2018-05-31T00:48:50.963Z,21.77
2018-05-31T00:51:17.562Z,28.33
2018-05-31T00:53:44.170Z,26.08
2018-05-31T00:56:16.664Z,21.45
2018-05-31T00:58:43.264Z,22.52
2018-05-31T01:01:09.857Z,21.60
2018-05-31T01:03:36.461Z,20.35
2018-05-31T01:06:03.057Z,19.17
2018-05-31T01:08:29.671Z,20.95
2018-05-31T01:10:56.260Z,17.33
2018-05-31T01:13:22.876Z,19.90
2018-05-31T01:15:49.483Z,21.62
2018-05-31T01:18:16.072Z,23.60
2018-05-31T01:20:42.669Z,20.50
2018-05-31T01:23:09.282Z,18.90
2018-05-31T01:25:35.890Z,20.25
2018-05-31T01:28:02.507Z,20.15
2018-05-31T01:30:29.097Z,19.12
2018-05-31T01:32:55.696Z,19.08
2018-05-31T01:35:22.293Z,20.88
2018-05-31T01:37:48.907Z,19.92
2018-05-31T01:40:15.513Z,19.00
2018-05-31T01:42:42.127Z,18.62
2018-05-31T01:45:08.720Z,21.75
2018-05-31T01:47:35.320Z,18.15
2018-05-31T01:50:01.916Z,20.33
2018-05-31T01:52:28.507Z,20.88
2018-05-31T01:54:55.104Z,21.17
2018-05-31T01:57:21.713Z,20.27
2018-05-31T01:59:48.304Z,23.02
2018-05-31T02:02:14.905Z,20.37
2018-05-31T02:04:41.499Z,18.00
2018-05-31T02:07:08.111Z,23.02
2018-05-31T02:09:34.723Z,22.13
2018-05-31T02:12:01.326Z,21.50
2018-05-31T02:14:27.942Z,21.50
2018-05-31T02:16:54.531Z,21.55
2018-05-31T02:19:21.142Z,22.08
2018-05-31T02:21:47.878Z,19.25
2018-05-31T02:24:14.490Z,20.12
2018-05-31T02:26:41.096Z,21.90
2018-05-31T02:29:07.688Z,20.17
2018-05-31T02:31:34.882Z,20.58
2018-05-31T02:34:01.477Z,21.42
2018-05-31T02:36:28.082Z,18.77
2018-05-31T02:38:55.052Z,21.23
2018-05-31T02:41:21.639Z,20.17
2018-05-31T02:43:48.235Z,21.77
2018-05-31T02:46:14.832Z,24.80
2018-05-31T02:48:41.442Z,21.52
2018-05-31T02:51:08.037Z,23.52
2018-05-31T02:53:34.650Z,22.27
2018-05-31T02:56:01.263Z,22.75
2018-05-31T02:58:27.851Z,22.15
2018-05-31T03:00:54.463Z,24.20
2018-05-31T03:03:21.064Z,22.62
2018-05-31T03:05:47.695Z,18.00
2018-05-31T03:08:14.294Z,24.12
2018-05-31T03:10:40.901Z,22.60
2018-05-31T03:13:07.496Z,22.77
2018-05-31T03:15:34.101Z,23.12
2018-05-31T03:18:00.691Z,23.87
2018-05-31T03:20:27.310Z,24.20
2018-05-31T03:22:53.920Z,20.15
2018-05-31T03:25:20.530Z,21.55
2018-05-31T03:27:47.121Z,20.55
2018-05-31T03:30:13.734Z,22.00
2018-05-31T03:32:40.324Z,19.15
2018-05-31T03:35:06.935Z,20.33
2018-05-31T03:37:33.524Z,23.80
2018-05-31T03:40:00.138Z,22.50
2018-05-31T03:42:26.741Z,21.70
2018-05-31T03:44:53.345Z,19.48
2018-05-31T03:47:19.993Z,20.02
2018-05-31T03:49:46.572Z,19.62
2018-05-31T03:52:13.182Z,21.98
2018-05-31T03:54:39.776Z,21.23
2018-05-31T03:57:06.492Z,22.02
2018-05-31T03:59:33.084Z,20.65
2018-05-31T04:01:59.686Z,20.08
2018-05-31T04:04:26.296Z,18.77
2018-05-31T04:06:52.902Z,15.50
2018-05-31T04:09:19.514Z,16.55
2018-05-31T04:11:46.109Z,18.67
2018-05-31T04:14:12.699Z,23.00
2018-05-31T04:16:39.546Z,16.35
2018-05-31T04:19:06.151Z,19.65
2018-05-31T04:21:32.788Z,19.23
2018-05-31T04:23:59.392Z,17.67
2018-05-31T04:26:25.992Z,16.87
2018-05-31T04:28:52.602Z,18.60
2018-05-31T04:31:19.199Z,17.25
2018-05-31T04:33:45.806Z,16.37
2018-05-31T04:36:12.397Z,15.45
2018-05-31T04:38:38.992Z,16.58
2018-05-31T04:41:05.609Z,14.77
2018-05-31T04:43:32.218Z,16.58
2018-05-31T04:45:58.822Z,16.45
2018-05-31T04:48:25.421Z,16.75
2018-05-31T04:50:52.013Z,15.95
2018-05-31T04:53:18.600Z,15.02
2018-05-31T04:55:45.213Z,16.50
2018-05-31T04:58:11.824Z,15.90
2018-05-31T05:00:38.435Z,14.43
2018-05-31T05:03:05.080Z,12.15
2018-05-31T05:05:31.694Z,15.00
2018-05-31T05:07:58.302Z,13.18
2018-05-31T05:10:24.910Z,14.85
2018-05-31T05:12:51.646Z,13.07
2018-05-31T05:15:18.400Z,17.10
2018-05-31T05:17:45.002Z,13.07
2018-05-31T05:20:11.600Z,13.68
2018-05-31T05:22:38.207Z,16.50
2018-05-31T05:25:04.818Z,14.35
2018-05-31T05:27:31.428Z,15.32
2018-05-31T05:29:58.020Z,13.05
2018-05-31T05:32:24.659Z,14.63
2018-05-31T05:34:51.242Z,15.13
2018-05-31T05:37:17.847Z,14.87
2018-05-31T05:39:44.515Z,14.70
2018-05-31T05:42:11.139Z,14.25
2018-05-31T05:44:37.747Z,13.10
2018-05-31T05:47:04.346Z,15.23
2018-05-31T05:49:30.940Z,16.87
2018-05-31T05:51:57.556Z,16.73
2018-05-31T05:54:24.152Z,14.82
2018-05-31T05:56:50.753Z,16.40
2018-05-31T05:59:17.363Z,14.85
2018-05-31T06:01:43.976Z,17.08
2018-05-31T06:04:10.592Z,14.98
2018-05-31T06:06:37.205Z,16.90
2018-05-31T06:09:03.847Z,18.92
2018-05-31T06:11:30.446Z,16.27
2018-05-31T06:13:57.036Z,16.10
2018-05-31T06:16:23.646Z,15.52
2018-05-31T06:18:50.254Z,14.75
2018-05-31T06:21:16.862Z,16.95
2018-05-31T06:23:43.474Z,16.25
2018-05-31T06:26:10.108Z,17.85
2018-05-31T06:28:36.691Z,16.02
2018-05-31T06:31:03.320Z,19.98
2018-05-31T06:33:30.192Z,17.67
2018-05-31T06:35:56.767Z,18.58
2018-05-31T06:38:23.383Z,19.75
2018-05-31T06:40:49.994Z,14.82
2018-05-31T06:43:16.596Z,20.33
2018-05-31T06:45:43.207Z,20.05
2018-05-31T06:48:09.815Z,19.30
2018-05-31T06:50:36.416Z,18.33
2018-05-31T06:53:03.018Z,16.05
2018-05-31T06:55:29.666Z,19.95
2018-05-31T06:57:56.274Z,21.50
2018-05-31T07:00:22.892Z,16.20
2018-05-31T07:02:49.520Z,18.77
2018-05-31T07:05:16.126Z,19.23
2018-05-31T07:07:42.735Z,18.62
2018-05-31T07:10:09.345Z,19.30
2018-05-31T07:12:35.936Z,21.85
2018-05-31T07:15:02.537Z,19.87
2018-05-31T07:17:29.153Z,19.08
2018-05-31T07:19:55.760Z,17.70
2018-05-31T07:22:22.363Z,20.30
2018-05-31T07:24:49.978Z,18.60
2018-05-31T07:27:16.597Z,19.75
2018-05-31T07:29:43.208Z,18.35
2018-05-31T07:32:09.817Z,18.90
2018-05-31T07:34:36.439Z,18.12
2018-05-31T07:37:03.028Z,17.37
2018-05-31T07:39:29.631Z,15.75
2018-05-31T07:41:56.235Z,14.38
2018-05-31T07:44:22.902Z,16.27
2018-05-31T07:46:49.457Z,16.25
2018-05-31T07:49:16.060Z,16.48
2018-05-31T07:51:42.690Z,14.98
2018-05-31T07:54:09.312Z,15.77
2018-05-31T07:56:35.930Z,12.95
2018-05-31T07:59:02.543Z,15.23
2018-05-31T08:01:29.165Z,16.75
2018-05-31T08:03:55.752Z,14.52
2018-05-31T08:06:22.353Z,14.27
2018-05-31T08:08:49.072Z,15.93
2018-05-31T08:11:15.898Z,15.57
2018-05-31T08:13:42.484Z,17.10
2018-05-31T08:16:09.085Z,18.25
2018-05-31T08:18:35.693Z,18.65
2018-05-31T08:21:02.289Z,14.38
2018-05-31T08:23:28.909Z,13.30
2018-05-31T08:25:55.480Z,14.55
2018-05-31T08:28:22.077Z,13.77
2018-05-31T08:30:48.677Z,14.18
2018-05-31T08:33:15.292Z,14.93
2018-05-31T08:35:41.893Z,16.58
2018-05-31T08:38:08.499Z,16.17
2018-05-31T08:40:35.106Z,14.45
2018-05-31T08:43:01.717Z,17.05
2018-05-31T08:45:28.305Z,13.68
2018-05-31T08:47:54.900Z,12.32
2018-05-31T08:50:21.497Z,13.82
2018-05-31T08:52:48.622Z,12.27
2018-05-31T08:55:15.220Z,15.43
2018-05-31T08:57:41.816Z,14.65
2018-05-31T09:00:08.431Z,14.93
2018-05-31T09:02:35.029Z,14.90
2018-05-31T09:05:01.655Z,16.25
2018-05-31T09:07:28.258Z,15.35
2018-05-31T09:09:54.874Z,13.73
2018-05-31T09:12:21.472Z,16.00
2018-05-31T09:14:48.064Z,15.40
2018-05-31T09:17:14.682Z,17.23
2018-05-31T09:19:41.281Z,16.27
2018-05-31T09:22:07.891Z,17.05
2018-05-31T09:24:34.488Z,15.98
2018-05-31T09:27:01.095Z,15.15
2018-05-31T09:29:27.695Z,16.98
2018-05-31T09:31:54.306Z,15.13
2018-05-31T09:34:20.913Z,18.23
2018-05-31T09:36:47.944Z,15.18
2018-05-31T09:39:14.550Z,13.55
2018-05-31T09:41:41.161Z,16.55
2018-05-31T09:44:07.755Z,15.63
2018-05-31T09:46:34.719Z,18.23
2018-05-31T09:49:01.313Z,17.15
2018-05-31T09:51:27.924Z,17.20
2018-05-31T09:53:54.521Z,16.45
2018-05-31T09:56:21.119Z,17.20
2018-05-31T09:58:48.129Z,17.10
2018-05-31T10:01:14.733Z,16.37
2018-05-31T10:03:41.350Z,18.23
2018-05-31T10:06:07.964Z,13.85
2018-05-31T10:08:34.556Z,14.10
2018-05-31T10:11:01.171Z,14.90
2018-05-31T10:13:27.770Z,16.52
2018-05-31T10:15:54.382Z,13.05
2018-05-31T10:18:20.992Z,12.23
2018-05-31T10:20:47.599Z,13.98
2018-05-31T10:23:14.201Z,9.90
2018-05-31T10:25:40.791Z,8.98
2018-05-31T10:28:07.411Z,9.68
2018-05-31T10:30:34.001Z,9.45
2018-05-31T10:33:00.604Z,8.55
2018-05-31T10:35:27.187Z,8.80
2018-05-31T10:37:53.784Z,8.13
2018-05-31T10:40:20.397Z,8.45
2018-05-31T10:42:47.500Z,9.50
2018-05-31T10:45:14.634Z,9.38
2018-05-31T10:47:41.239Z,10.20
2018-05-31T10:50:07.871Z,10.93
2018-05-31T10:52:35.355Z,11.07
2018-05-31T10:55:01.975Z,9.77
2018-05-31T10:57:28.789Z,9.02
2018-05-31T10:59:55.364Z,8.85
2018-05-31T11:02:21.973Z,9.23
2018-05-31T11:04:48.578Z,9.30
2018-05-31T11:07:15.168Z,10.25
2018-05-31T11:09:41.787Z,8.98
2018-05-31T11:12:08.384Z,9.40
2018-05-31T11:14:34.980Z,8.40
2018-05-31T11:17:01.588Z,7.00
2018-05-31T11:19:28.197Z,6.97
2018-05-31T11:21:54.780Z,7.85
2018-05-31T11:24:21.377Z,9.07
2018-05-31T11:26:47.971Z,8.25
2018-05-31T11:29:14.627Z,9.05
2018-05-31T11:31:41.188Z,8.43
2018-05-31T11:34:07.795Z,6.97
2018-05-31T11:36:34.390Z,8.32
2018-05-31T11:39:00.984Z,6.55
2018-05-31T11:41:27.580Z,5.70
2018-05-31T11:43:54.175Z,4.80
2018-05-31T11:46:20.883Z,7.15
2018-05-31T11:48:47.458Z,5.05
2018-05-31T11:51:14.159Z,4.62
2018-05-31T11:53:41.132Z,5.47
2018-05-31T11:56:09.999Z,4.10
2018-05-31T11:58:36.615Z,6.30
2018-05-31T12:01:03.211Z,4.93
2018-05-31T12:03:29.830Z,4.22
2018-05-31T12:05:56.444Z,5.30
2018-05-31T12:10:56.689Z,5.10
2018-05-31T12:13:23.280Z,4.95
2018-05-31T12:15:50.164Z,4.28
2018-05-31T12:18:16.759Z,7.25
2018-05-31T12:20:43.366Z,5.45
2018-05-31T12:23:11.737Z,5.68
2018-05-31T12:25:39.126Z,6.35
2018-05-31T12:28:06.415Z,5.80
2018-05-31T12:30:33.520Z,6.60
2018-05-31T12:33:01.660Z,8.35
2018-05-31T12:35:29.558Z,9.23
2018-05-31T12:38:00.744Z,9.63
2018-05-31T12:40:27.350Z,8.48
2018-05-31T12:42:57.305Z,7.80
2018-05-31T12:45:25.220Z,7.25
2018-05-31T12:47:53.795Z,6.25
2018-05-31T12:50:20.756Z,6.72
2018-05-31T12:52:50.654Z,6.03
2018-05-31T12:55:19.214Z,5.62
2018-05-31T12:57:45.798Z,4.75
2018-05-31T13:00:12.393Z,6.78
2018-05-31T13:02:39.893Z,6.70
2018-05-31T13:05:07.756Z,4.82
2018-05-31T13:07:36.614Z,4.75
2018-05-31T13:10:05.228Z,5.93
2018-05-31T13:12:34.081Z,4.22
2018-05-31T13:15:01.443Z,5.82
2018-05-31T13:17:28.046Z,5.03
2018-05-31T13:19:58.340Z,6.15
2018-05-31T13:22:26.852Z,5.10
2018-05-31T13:24:58.301Z,9.18
2018-05-31T13:27:25.391Z,6.45
2018-05-31T13:29:51.999Z,7.55
2018-05-31T13:32:18.606Z,7.30
2018-05-31T13:34:45.210Z,7.55
2018-05-31T13:37:11.797Z,9.10
2018-05-31T13:39:38.388Z,4.68
2018-05-31T13:42:05.217Z,8.15
2018-05-31T13:44:31.815Z,7.50
2018-05-31T13:46:58.401Z,7.00
2018-05-31T13:49:25.095Z,8.10
2018-05-31T13:51:51.713Z,9.00
2018-05-31T13:54:19.021Z,9.80
2018-05-31T13:56:45.613Z,7.72
2018-05-31T13:59:12.204Z,8.57
2018-05-31T14:01:38.805Z,10.50
2018-05-31T14:04:05.629Z,9.10
2018-05-31T14:06:32.238Z,11.75
2018-05-31T14:08:58.851Z,11.93
2018-05-31T14:11:25.469Z,8.50
2018-05-31T14:13:52.989Z,7.50
2018-05-31T14:16:20.461Z,5.70
2018-05-31T14:18:47.144Z,7.32
2018-05-31T14:21:14.773Z,5.50
2018-05-31T14:23:41.860Z,5.37
2018-05-31T14:26:08.479Z,8.18
2018-05-31T14:28:35.084Z,5.65
2018-05-31T14:31:01.807Z,6.00
2018-05-31T14:33:28.414Z,5.45
2018-05-31T14:35:56.062Z,6.55
2018-05-31T14:38:22.627Z,5.22
2018-05-31T14:40:49.227Z,4.85
2018-05-31T14:43:15.882Z,4.62
2018-05-31T14:45:42.417Z,4.00
2018-05-31T14:48:09.006Z,4.25
2018-05-31T14:50:35.592Z,2.92
2018-05-31T14:53:03.513Z,3.53
2018-05-31T14:55:30.096Z,3.70
2018-05-31T14:57:57.404Z,3.95
2018-05-31T15:00:24.007Z,5.32
2018-05-31T15:02:50.600Z,4.05
2018-05-31T15:05:17.207Z,3.37
2018-05-31T15:07:43.802Z,3.75
2018-05-31T15:10:10.420Z,10.18
2018-05-31T15:12:37.012Z,8.95
2018-05-31T15:15:03.623Z,6.85
2018-05-31T15:17:30.234Z,4.68
2018-05-31T15:19:59.455Z,4.65
2018-05-31T15:22:26.771Z,4.82
2018-05-31T15:24:53.360Z,5.80
2018-05-31T15:27:19.973Z,5.65
2018-05-31T15:29:46.561Z,4.85
2018-05-31T15:32:13.160Z,6.07
2018-05-31T15:34:39.770Z,5.15
2018-05-31T15:37:06.362Z,5.22
2018-05-31T15:39:34.096Z,4.40
2018-05-31T15:42:00.741Z,5.30
2018-05-31T15:44:27.308Z,5.93
2018-05-31T15:46:53.888Z,7.10
2018-05-31T15:49:20.484Z,4.47
2018-05-31T15:51:47.077Z,4.50
2018-05-31T15:54:13.665Z,4.55
2018-05-31T15:56:40.262Z,4.97
2018-05-31T15:59:06.849Z,3.92
2018-05-31T16:01:33.456Z,5.53
2018-05-31T16:04:00.664Z,6.18
2018-05-31T16:06:27.294Z,5.40
2018-05-31T16:08:53.877Z,5.25
2018-05-31T16:11:20.480Z,5.50
2018-05-31T16:13:47.894Z,5.47
2018-05-31T16:16:14.490Z,6.07
2018-05-31T16:18:41.072Z,5.15
2018-05-31T16:21:07.851Z,5.95
2018-05-31T16:23:35.352Z,5.53
2018-05-31T16:26:02.062Z,4.07
2018-05-31T16:28:28.704Z,6.40
2018-05-31T16:30:55.250Z,5.68
2018-05-31T16:33:21.840Z,6.40
2018-05-31T16:35:51.452Z,6.25
2018-05-31T16:38:22.413Z,6.82
2018-05-31T16:40:50.050Z,5.93
2018-05-31T16:43:16.760Z,4.93
2018-05-31T16:45:43.367Z,5.60
2018-05-31T16:51:13.491Z,4.53
2018-05-31T16:53:45.119Z,5.78
2018-05-31T16:56:12.435Z,6.28
2018-05-31T16:58:39.031Z,6.10
2018-05-31T17:01:05.636Z,6.07
2018-05-31T17:03:32.237Z,8.18
2018-05-31T17:05:58.820Z,6.65
2018-05-31T17:08:25.423Z,6.43
2018-05-31T17:10:52.026Z,6.90
2018-05-31T17:13:18.626Z,6.45
2018-05-31T17:15:45.239Z,6.43
2018-05-31T17:18:12.010Z,6.60
2018-05-31T17:20:38.625Z,5.80
2018-05-31T17:23:05.248Z,7.82
2018-05-31T17:25:31.847Z,6.93
2018-05-31T17:27:58.451Z,5.90
2018-05-31T17:30:25.095Z,7.07
2018-05-31T17:32:51.726Z,7.05
2018-05-31T17:35:18.335Z,6.10
2018-05-31T17:37:44.970Z,6.40
2018-05-31T17:40:11.599Z,7.47
2018-05-31T17:42:38.189Z,6.00
2018-05-31T17:45:04.798Z,6.62
2018-05-31T17:47:31.402Z,6.15
2018-05-31T17:49:57.980Z,5.53
2018-05-31T17:52:24.656Z,6.30
2018-05-31T17:54:51.292Z,5.55
2018-05-31T17:57:17.935Z,6.15
2018-05-31T17:59:44.528Z,6.50
2018-05-31T18:02:11.126Z,7.20
2018-05-31T18:04:37.712Z,6.75
2018-05-31T18:07:04.438Z,6.93
2018-05-31T18:09:31.021Z,5.53
2018-05-31T18:11:57.622Z,6.65
2018-05-31T18:14:24.239Z,6.87
2018-05-31T18:16:50.842Z,5.50
2018-05-31T18:19:17.578Z,7.03
2018-05-31T18:21:44.212Z,5.35
2018-05-31T18:24:10.821Z,7.82
2018-05-31T18:26:37.442Z,6.60
2018-05-31T18:29:04.033Z,6.20
2018-05-31T18:31:30.621Z,6.68
2018-05-31T18:33:57.229Z,8.27
2018-05-31T18:36:23.817Z,7.43
2018-05-31T18:38:50.414Z,6.55
2018-05-31T18:41:17.013Z,9.27
2018-05-31T18:43:43.598Z,6.57
2018-05-31T18:46:10.213Z,7.55
2018-05-31T18:48:36.808Z,8.20
2018-05-31T18:51:03.411Z,10.48
2018-05-31T18:53:30.010Z,7.60
2018-05-31T18:55:56.635Z,10.07
2018-05-31T18:58:23.231Z,8.45
2018-05-31T19:00:50.015Z,7.82
2018-05-31T19:03:16.871Z,7.65
2018-05-31T19:05:43.697Z,8.30
2018-05-31T19:08:10.384Z,8.18
2018-05-31T19:10:37.396Z,7.45
2018-05-31T19:13:09.780Z,8.55
2018-05-31T19:15:36.398Z,10.50
2018-05-31T19:18:03.027Z,9.05
2018-05-31T19:20:29.613Z,7.68
2018-05-31T19:22:56.288Z,8.60
2018-05-31T19:25:22.922Z,7.55
2018-05-31T19:27:49.536Z,8.00
2018-05-31T19:30:21.942Z,6.10
2018-05-31T19:32:48.540Z,7.50
2018-05-31T19:35:20.827Z,6.80
2018-05-31T19:37:48.140Z,7.45
2018-05-31T19:40:14.744Z,7.12
2018-05-31T19:42:47.345Z,5.97
2018-05-31T19:45:13.932Z,5.93
2018-05-31T19:47:40.523Z,5.85
2018-05-31T19:50:07.125Z,5.87
2018-05-31T19:52:39.420Z,7.53
2018-05-31T19:55:06.019Z,6.93
2018-05-31T19:57:32.612Z,8.05
2018-05-31T20:00:04.951Z,6.90
2018-05-31T20:02:37.288Z,6.43
2018-05-31T20:05:03.887Z,6.15
2018-05-31T20:07:30.496Z,5.03
2018-05-31T20:09:57.088Z,6.32
2018-05-31T20:12:23.691Z,7.20
2018-05-31T20:14:50.276Z,5.70
2018-05-31T20:17:16.887Z,4.85
2018-05-31T20:19:43.487Z,6.90
2018-05-31T20:22:10.094Z,6.37
2018-05-31T20:24:36.714Z,7.45
2018-05-31T20:27:03.310Z,5.78
2018-05-31T20:29:29.904Z,6.50
2018-05-31T20:31:56.524Z,6.32
2018-05-31T20:34:23.936Z,5.03
2018-05-31T20:36:50.522Z,5.80
2018-05-31T20:39:17.112Z,5.30
2018-05-31T20:41:43.769Z,5.65
2018-05-31T20:44:10.352Z,3.92
2018-05-31T20:46:36.954Z,5.93
2018-05-31T20:49:03.546Z,5.37
2018-05-31T20:51:30.148Z,6.47
2018-05-31T20:53:56.732Z,6.28
2018-05-31T20:56:23.331Z,5.35
2018-05-31T20:58:49.930Z,6.45
2018-05-31T21:01:16.524Z,5.25
2018-05-31T21:03:43.115Z,5.15
2018-05-31T21:06:09.719Z,7.20
2018-05-31T21:08:36.318Z,5.45
2018-05-31T21:11:02.908Z,6.55
2018-05-31T21:13:30.205Z,6.78
2018-05-31T21:15:57.440Z,5.20
2018-05-31T21:18:24.025Z,7.22
2018-05-31T21:20:50.622Z,5.37
2018-05-31T21:23:17.227Z,5.00
2018-05-31T21:25:43.827Z,5.00
2018-05-31T21:28:11.252Z,5.53
2018-05-31T21:30:37.855Z,6.05
2018-05-31T21:33:04.673Z,5.25
2018-05-31T21:35:31.329Z,7.55
2018-05-31T21:37:58.577Z,5.90
2018-05-31T21:40:25.803Z,5.62
2018-05-31T21:42:52.425Z,6.55
2018-05-31T21:45:19.016Z,4.72
2018-05-31T21:47:45.600Z,4.55
2018-05-31T21:50:12.196Z,5.70
2018-05-31T21:52:39.328Z,5.25
2018-05-31T21:55:05.961Z,4.37
2018-05-31T21:57:32.555Z,4.65
2018-05-31T21:59:59.192Z,4.60
2018-05-31T22:02:25.848Z,6.75
2018-05-31T22:04:52.437Z,4.95
2018-05-31T22:07:19.051Z,5.30
2018-05-31T22:09:45.665Z,5.28
2018-05-31T22:12:12.313Z,6.28
2018-05-31T22:14:38.937Z,5.12
2018-05-31T22:17:05.534Z,4.85
2018-05-31T22:19:32.149Z,5.12
2018-05-31T22:21:58.756Z,4.65
2018-05-31T22:24:25.428Z,6.35
2018-05-31T22:26:52.059Z,4.55
2018-05-31T22:29:18.659Z,5.95
2018-05-31T22:31:45.600Z,5.45
2018-05-31T22:34:12.204Z,4.28
2018-05-31T22:36:38.794Z,5.90
2018-05-31T22:39:05.399Z,4.90
2018-05-31T22:41:31.984Z,4.65
2018-05-31T22:43:59.476Z,4.87
2018-05-31T22:46:26.060Z,4.68
2018-05-31T22:48:52.645Z,4.97
2018-05-31T22:51:19.231Z,5.12
2018-05-31T22:53:45.851Z,4.85
2018-05-31T22:56:12.451Z,4.60
2018-05-31T22:58:39.051Z,3.65
2018-05-31T23:01:05.655Z,4.05
2018-05-31T23:03:32.255Z,3.75
2018-05-31T23:05:58.862Z,5.05
2018-05-31T23:08:31.293Z,6.28
2018-05-31T23:10:57.888Z,5.18
2018-05-31T23:13:24.484Z,4.35
2018-05-31T23:15:51.091Z,5.12
2018-05-31T23:18:17.676Z,5.35
2018-05-31T23:20:44.279Z,5.50
2018-05-31T23:23:10.885Z,6.22
2018-05-31T23:25:37.467Z,3.97
2018-05-31T23:28:04.067Z,5.22
2018-05-31T23:30:30.669Z,4.65
2018-05-31T23:32:57.253Z,3.78
2018-05-31T23:35:23.844Z,3.55
2018-05-31T23:37:50.448Z,4.55
2018-05-31T23:40:17.050Z,4.57
2018-05-31T23:47:18.623Z,4.75
2018-05-31T23:49:45.226Z,3.58
2018-05-31T23:52:11.816Z,4.55
2018-05-31T23:54:38.423Z,5.07
2018-05-31T23:57:05.007Z,4.53
2018-05-31T23:59:31.639Z,4.90
